Main page
METAR-TAF:

METAR-TAF

Airports :

Coast Guard Air Station Port Angeles

Port Angeles, Washington, United States

latitude: 48-08-27N, longitude: 123-24-39W, elevation: 4 m

Current weather observation

The report was made 28 minutes ago, at 19:15 UTC
Wind 3 kt from the East/Southeast
Temperature 16°C
Humidity 72%
Pressure 1017 hPa
Visibility: 16.1 km
Clear sky

METAR: KNOW 191915Z AUTO 12003KT 10SM CLR 16/11 A3004 RMK AO2 T01580108

Time: 12:43 (19:43 UTC)


TAF: missing

Weather observations and forecasts of more than 4000 airports (METAR and TAF reports).

The available stations are represented by yellow and red dots on the map.

Hover mouse over dot to see the name of the station.

Then click to see weather observations and forecasts.

To change the map : click on the green buttons with a black cross to zoom in, on the green button with a dash to zoom out, or on the green arrows for adjacent maps.


METAR-TAF: